createdAt,value
2022-11-16T00:01:50.911Z,8.80
2022-11-16T00:04:36.098Z,9.23
2022-11-16T00:07:21.395Z,8.37
2022-11-16T00:10:12.463Z,7.73
2022-11-16T00:12:59.460Z,8.33
2022-11-16T00:15:57.336Z,7.80
2022-11-16T00:18:44.479Z,8.40
2022-11-16T00:21:30.955Z,7.57
2022-11-16T00:24:17.828Z,9.03
2022-11-16T00:27:02.697Z,7.70
2022-11-16T00:29:47.607Z,8.10
2022-11-16T00:32:33.459Z,7.87
2022-11-16T00:35:18.912Z,7.17
2022-11-16T00:38:03.899Z,7.37
2022-11-16T00:40:49.568Z,7.70
2022-11-16T00:43:36.895Z,7.03
2022-11-16T00:46:22.357Z,7.30
2022-11-16T00:49:07.663Z,7.07
2022-11-16T00:51:52.793Z,7.13
2022-11-16T00:54:38.738Z,7.07
2022-11-16T00:57:24.256Z,6.40
2022-11-16T01:00:11.031Z,6.20
2022-11-16T01:02:56.193Z,6.70
2022-11-16T01:05:42.761Z,6.63
2022-11-16T01:08:28.651Z,5.77
2022-11-16T01:11:34.667Z,5.87
2022-11-16T01:14:19.819Z,5.90
2022-11-16T01:17:04.977Z,6.10
2022-11-16T01:19:50.170Z,5.70
2022-11-16T01:22:36.034Z,5.47
2022-11-16T01:25:21.787Z,5.67
2022-11-16T01:28:07.077Z,5.30
2022-11-16T01:31:03.423Z,5.73
2022-11-16T01:33:52.232Z,5.37
2022-11-16T01:36:43.870Z,5.37
2022-11-16T01:39:28.839Z,5.50
2022-11-16T01:42:27.474Z,4.57
2022-11-16T01:45:23.629Z,5.10
2022-11-16T01:48:16.724Z,4.60
2022-11-16T01:51:02.507Z,4.93
2022-11-16T01:53:49.638Z,4.90
2022-11-16T01:56:38.743Z,5.00
2022-11-16T01:59:39.172Z,5.13
2022-11-16T02:02:27.784Z,4.30
2022-11-16T02:05:17.367Z,4.27
2022-11-16T02:09:17.043Z,4.53
2022-11-16T02:12:32.272Z,4.77
2022-11-16T02:15:27.591Z,4.30
2022-11-16T02:18:36.342Z,4.50
2022-11-16T02:21:35.221Z,4.60
2022-11-16T02:24:46.684Z,4.33
2022-11-16T02:27:56.142Z,4.17
2022-11-16T02:30:47.475Z,3.70
2022-11-16T02:33:40.135Z,3.93
2022-11-16T02:36:26.049Z,3.80
2022-11-16T02:39:16.182Z,4.20
2022-11-16T02:42:04.066Z,3.50
2022-11-16T02:44:52.186Z,3.77
2022-11-16T02:47:39.446Z,4.40
2022-11-16T02:50:26.954Z,3.40
2022-11-16T02:53:13.031Z,4.30
2022-11-16T02:55:59.333Z,3.90
2022-11-16T02:58:46.473Z,3.60
2022-11-16T03:01:36.760Z,4.10
2022-11-16T03:04:33.802Z,3.83
2022-11-16T03:07:25.521Z,3.53
2022-11-16T03:10:32.268Z,3.33
2022-11-16T03:13:18.875Z,3.80
2022-11-16T03:16:10.001Z,3.77
2022-11-16T03:19:00.871Z,3.20
2022-11-16T03:21:51.908Z,4.10
2022-11-16T03:24:38.594Z,3.27
2022-11-16T03:27:44.889Z,3.27
2022-11-16T03:30:33.520Z,3.60
2022-11-16T03:33:24.048Z,2.80
2022-11-16T03:36:20.880Z,3.33
2022-11-16T03:39:18.959Z,3.30
2022-11-16T03:42:13.538Z,3.47
2022-11-16T03:45:00.408Z,3.13
2022-11-16T03:47:46.514Z,3.30
2022-11-16T03:50:33.462Z,2.90
2022-11-16T03:53:20.229Z,3.10
2022-11-16T03:56:06.001Z,3.10
2022-11-16T03:58:51.812Z,3.20
2022-11-16T04:01:43.283Z,3.07
2022-11-16T04:04:49.366Z,2.90
2022-11-16T04:07:53.085Z,3.10
2022-11-16T04:10:57.401Z,3.10
2022-11-16T04:14:04.157Z,2.87
2022-11-16T04:17:12.180Z,3.30
2022-11-16T04:20:16.117Z,2.83
2022-11-16T04:23:31.236Z,2.83
2022-11-16T04:26:16.601Z,2.90
2022-11-16T04:29:01.902Z,3.00
2022-11-16T04:32:05.952Z,2.80
2022-11-16T04:35:10.378Z,2.67
2022-11-16T04:37:58.005Z,3.13
2022-11-16T04:40:49.648Z,2.70
2022-11-16T04:43:34.892Z,2.87
2022-11-16T04:46:39.098Z,2.80
2022-11-16T04:49:24.502Z,2.97
2022-11-16T04:52:11.941Z,2.50
2022-11-16T04:54:58.029Z,2.50
2022-11-16T04:57:43.796Z,2.60
2022-11-16T05:00:31.177Z,3.00
2022-11-16T05:03:16.196Z,2.83
2022-11-16T05:06:03.241Z,2.50
2022-11-16T05:08:48.394Z,2.37
2022-11-16T05:11:33.854Z,2.57
2022-11-16T05:14:19.478Z,2.37
2022-11-16T05:17:04.912Z,2.50
2022-11-16T05:20:08.918Z,2.53
2022-11-16T05:23:03.715Z,2.57
2022-11-16T05:25:51.864Z,2.40
2022-11-16T05:28:37.222Z,2.40
2022-11-16T05:31:22.601Z,2.30
2022-11-16T05:34:09.372Z,2.60
2022-11-16T05:36:55.133Z,2.43
2022-11-16T05:39:40.997Z,2.60
2022-11-16T05:42:26.196Z,2.30
2022-11-16T05:45:15.963Z,2.20
2022-11-16T05:48:03.733Z,2.60
2022-11-16T05:50:49.881Z,2.10
2022-11-16T05:53:44.209Z,2.17
2022-11-16T05:56:34.744Z,2.30
2022-11-16T05:59:21.583Z,2.23
2022-11-16T06:02:10.121Z,2.30
2022-11-16T06:04:55.777Z,2.20
2022-11-16T06:07:41.283Z,2.20
2022-11-16T06:10:26.395Z,2.40
2022-11-16T06:13:12.035Z,2.23
2022-11-16T06:15:58.834Z,2.17
2022-11-16T06:18:46.354Z,2.17
2022-11-16T06:21:33.741Z,2.43
2022-11-16T06:24:22.360Z,2.43
2022-11-16T06:27:07.830Z,2.10
2022-11-16T06:29:54.444Z,2.47
2022-11-16T06:32:40.111Z,2.30
2022-11-16T06:35:26.126Z,2.70
2022-11-16T06:38:18.305Z,2.00
2022-11-16T06:41:05.241Z,2.37
2022-11-16T06:43:56.030Z,2.03
2022-11-16T06:46:47.811Z,1.93
2022-11-16T06:49:33.245Z,1.77
2022-11-16T06:52:21.414Z,2.10
2022-11-16T06:55:07.150Z,2.33
2022-11-16T06:57:54.810Z,2.20
2022-11-16T07:00:40.730Z,2.07
2022-11-16T07:03:32.310Z,2.10
2022-11-16T07:06:19.931Z,2.23
2022-11-16T07:09:06.254Z,2.13
2022-11-16T07:11:51.801Z,2.10
2022-11-16T07:14:38.907Z,2.17
2022-11-16T07:17:27.134Z,1.80
2022-11-16T07:20:13.223Z,1.80
2022-11-16T07:23:00.781Z,2.03
2022-11-16T07:25:47.252Z,2.03
2022-11-16T07:28:46.716Z,2.10
2022-11-16T07:31:35.706Z,1.67
2022-11-16T07:34:43.882Z,2.27
2022-11-16T07:37:32.898Z,1.93
2022-11-16T07:40:18.597Z,2.20
2022-11-16T07:43:04.515Z,2.03
2022-11-16T07:46:45.267Z,2.10
2022-11-16T07:49:19.626Z,1.73
2022-11-16T07:52:12.299Z,2.17
2022-11-16T07:55:16.625Z,1.67
2022-11-16T07:58:04.026Z,2.00
2022-11-16T08:00:49.680Z,1.90
2022-11-16T08:03:35.912Z,2.00
2022-11-16T08:06:25.888Z,2.00
2022-11-16T08:09:13.265Z,2.00
2022-11-16T08:11:59.805Z,1.90
2022-11-16T08:14:45.066Z,1.80
2022-11-16T08:17:31.902Z,1.87
2022-11-16T08:20:18.265Z,1.83
2022-11-16T08:23:05.841Z,1.80
2022-11-16T08:25:58.271Z,1.80
2022-11-16T08:28:46.105Z,1.80
2022-11-16T08:31:32.081Z,2.30
2022-11-16T08:34:30.965Z,2.10
2022-11-16T08:37:18.999Z,1.97
2022-11-16T08:40:06.745Z,1.73
2022-11-16T08:42:58.770Z,2.47
2022-11-16T08:45:48.004Z,2.20
2022-11-16T08:48:34.126Z,1.80
2022-11-16T08:51:20.736Z,1.73
2022-11-16T08:54:12.741Z,1.70
2022-11-16T08:56:59.937Z,1.80
2022-11-16T08:59:47.345Z,2.10
2022-11-16T09:02:32.876Z,2.10
2022-11-16T09:05:18.053Z,1.90
2022-11-16T09:08:03.170Z,2.10
2022-11-16T09:10:48.505Z,2.00
2022-11-16T09:13:33.760Z,1.60
2022-11-16T09:16:20.883Z,1.90
2022-11-16T09:19:06.028Z,1.80
2022-11-16T09:21:50.956Z,1.80
2022-11-16T09:24:36.082Z,1.73
2022-11-16T09:27:21.001Z,1.90
2022-11-16T09:30:07.681Z,1.97
2022-11-16T09:32:52.875Z,2.13
2022-11-16T09:35:38.408Z,1.83
2022-11-16T09:38:34.872Z,1.83
2022-11-16T09:41:44.376Z,1.63
2022-11-16T09:44:53.473Z,2.10
2022-11-16T09:47:44.754Z,2.10
2022-11-16T09:50:50.654Z,1.80
2022-11-16T09:53:37.509Z,2.00
2022-11-16T09:56:25.636Z,2.17
2022-11-16T09:59:38.522Z,1.90
2022-11-16T10:02:34.762Z,2.00
2022-11-16T10:05:32.691Z,1.80
2022-11-16T10:08:45.413Z,1.93
2022-11-16T10:11:58.898Z,2.10
2022-11-16T10:14:57.556Z,2.00
2022-11-16T10:17:55.346Z,2.07
2022-11-16T10:21:03.482Z,2.37
2022-11-16T10:24:34.012Z,1.90
2022-11-16T10:27:42.608Z,2.30
2022-11-16T10:30:27.811Z,1.57
2022-11-16T10:33:18.448Z,2.30
2022-11-16T10:36:12.998Z,2.20
2022-11-16T10:39:01.004Z,1.83
2022-11-16T10:41:55.256Z,2.07
2022-11-16T10:44:46.495Z,2.00
2022-11-16T10:47:52.850Z,2.10
2022-11-16T10:50:42.968Z,2.03
2022-11-16T10:53:33.294Z,1.90
2022-11-16T10:56:19.071Z,2.10
2022-11-16T10:59:09.384Z,1.70
2022-11-16T11:01:54.588Z,2.10
2022-11-16T11:04:39.585Z,1.93
2022-11-16T11:07:33.646Z,2.67
2022-11-16T11:10:31.326Z,5.47
2022-11-16T11:13:25.068Z,11.40
2022-11-16T11:16:16.643Z,18.20
2022-11-16T11:19:37.177Z,22.23
2022-11-16T11:22:22.218Z,30.50
2022-11-16T11:25:20.428Z,35.70
2022-11-16T11:28:28.727Z,40.77
2022-11-16T11:31:26.036Z,49.70
2022-11-16T11:34:52.055Z,52.37
2022-11-16T11:37:39.248Z,53.63
2022-11-16T11:40:32.696Z,53.73
2022-11-16T11:43:25.225Z,60.03
2022-11-16T11:46:20.738Z,60.50
2022-11-16T11:49:33.860Z,55.97
2022-11-16T11:52:26.370Z,51.40
2022-11-16T11:55:15.961Z,48.43
2022-11-16T11:58:04.339Z,48.23
2022-11-16T12:00:57.263Z,42.37
2022-11-16T12:04:06.104Z,39.90
2022-11-16T12:07:09.155Z,38.57
2022-11-16T12:10:13.817Z,37.50
2022-11-16T12:13:36.974Z,35.03
2022-11-16T12:16:36.975Z,34.23
2022-11-16T12:19:40.670Z,33.37
2022-11-16T12:22:46.351Z,32.10
2022-11-16T12:25:54.681Z,29.57
2022-11-16T12:29:02.580Z,29.30
2022-11-16T12:32:13.834Z,27.80
2022-11-16T12:35:27.198Z,27.13
2022-11-16T12:38:29.752Z,25.40
2022-11-16T12:41:50.740Z,25.37
2022-11-16T12:45:07.250Z,23.57
2022-11-16T12:48:04.577Z,23.10
2022-11-16T12:50:49.397Z,21.37
2022-11-16T12:53:41.442Z,21.07
2022-11-16T12:56:47.547Z,20.70
2022-11-16T12:59:56.137Z,21.00
2022-11-16T13:03:02.390Z,19.50
2022-11-16T13:06:03.477Z,18.43
2022-11-16T13:09:11.049Z,18.63
2022-11-16T13:12:00.758Z,17.37
2022-11-16T13:14:48.689Z,17.27
2022-11-16T13:17:38.791Z,16.23
2022-11-16T13:20:48.681Z,15.37
2022-11-16T13:23:49.654Z,15.33
2022-11-16T13:26:47.981Z,15.47
2022-11-16T13:29:53.646Z,14.33
2022-11-16T13:32:48.227Z,13.57
2022-11-16T13:35:37.693Z,14.93
2022-11-16T13:38:54.969Z,13.63
2022-11-16T13:41:42.363Z,13.30
2022-11-16T13:44:29.470Z,12.80
2022-11-16T13:47:22.558Z,13.27
2022-11-16T13:50:21.637Z,11.60
2022-11-16T13:56:29.364Z,10.87
2022-11-16T13:59:22.600Z,11.87
2022-11-16T14:02:30.049Z,11.10
2022-11-16T14:05:36.153Z,11.10
2022-11-16T14:08:24.182Z,10.27
2022-11-16T14:11:27.904Z,10.20
2022-11-16T14:14:51.467Z,10.47
2022-11-16T14:17:52.322Z,9.23
2022-11-16T14:20:37.253Z,10.13
2022-11-16T14:23:31.082Z,9.70
2022-11-16T14:26:34.751Z,32.00
2022-11-16T14:29:36.774Z,86.80
2022-11-16T14:32:29.044Z,124.20
2022-11-16T14:35:34.076Z,146.47
2022-11-16T14:38:34.475Z,190.40
2022-11-16T14:41:22.961Z,173.60
2022-11-16T14:44:10.654Z,138.93
2022-11-16T14:46:56.851Z,136.97
2022-11-16T14:49:44.747Z,135.60
2022-11-16T14:52:40.165Z,114.30
2022-11-16T14:55:26.504Z,101.17
2022-11-16T14:58:19.164Z,91.77
2022-11-16T15:01:08.002Z,85.00
2022-11-16T15:04:02.304Z,78.70
2022-11-16T15:06:56.013Z,70.50
2022-11-16T15:09:46.739Z,64.53
2022-11-16T15:12:41.578Z,59.27
2022-11-16T15:15:31.489Z,55.63
2022-11-16T15:18:19.218Z,52.00
2022-11-16T15:21:04.230Z,48.47
2022-11-16T15:24:15.487Z,50.10
2022-11-16T15:26:58.031Z,45.50
2022-11-16T15:29:43.327Z,41.03
2022-11-16T15:32:28.508Z,39.40
2022-11-16T15:35:21.513Z,36.40
2022-11-16T15:38:17.375Z,36.37
2022-11-16T15:41:04.904Z,33.83
2022-11-16T15:44:13.434Z,32.17
2022-11-16T15:47:00.633Z,30.27
2022-11-16T15:49:49.555Z,28.07
2022-11-16T15:52:43.407Z,27.90
2022-11-16T15:55:36.165Z,25.83
2022-11-16T15:58:31.366Z,24.47
2022-11-16T16:01:17.730Z,23.83
2022-11-16T16:04:06.079Z,22.10
2022-11-16T16:06:53.578Z,21.73
2022-11-16T16:09:40.893Z,20.73
2022-11-16T16:12:26.815Z,18.87
2022-11-16T16:15:25.782Z,18.90
2022-11-16T16:18:36.607Z,18.00
2022-11-16T16:21:22.825Z,16.87
2022-11-16T16:24:11.258Z,14.73
2022-11-16T16:26:56.650Z,14.60
2022-11-16T16:29:42.333Z,14.27
2022-11-16T16:32:30.019Z,11.80
2022-11-16T16:35:17.686Z,12.53
2022-11-16T16:38:02.608Z,12.83
2022-11-16T16:40:47.781Z,11.77
2022-11-16T16:43:33.778Z,11.37
2022-11-16T16:46:19.247Z,10.77
2022-11-16T16:49:04.505Z,9.47
2022-11-16T16:51:49.701Z,9.80
2022-11-16T16:54:34.767Z,9.63
2022-11-16T16:57:19.765Z,9.37
2022-11-16T17:00:05.073Z,8.30
2022-11-16T17:02:50.628Z,8.40
2022-11-16T17:05:35.897Z,7.83
2022-11-16T17:08:21.426Z,8.10
2022-11-16T17:11:06.514Z,8.33
2022-11-16T17:13:51.633Z,7.90
2022-11-16T17:16:36.416Z,6.63
2022-11-16T17:19:22.035Z,6.13
2022-11-16T17:22:07.185Z,6.10
2022-11-16T17:24:52.246Z,6.77
2022-11-16T17:27:37.181Z,6.43
2022-11-16T17:30:22.406Z,5.87
2022-11-16T17:33:07.449Z,5.83
2022-11-16T17:35:58.880Z,6.10
2022-11-16T17:38:44.253Z,5.50
2022-11-16T17:41:29.852Z,5.17
2022-11-16T17:44:20.159Z,5.63
2022-11-16T17:47:07.446Z,5.37
2022-11-16T17:49:52.922Z,5.33
2022-11-16T17:52:38.314Z,5.30
2022-11-16T17:55:23.189Z,5.07
2022-11-16T17:58:08.586Z,5.17
2022-11-16T18:00:53.683Z,4.70
2022-11-16T18:03:39.819Z,4.53
2022-11-16T18:06:25.793Z,4.23
2022-11-16T18:09:11.108Z,5.73
2022-11-16T18:11:56.162Z,5.37
2022-11-16T18:14:42.450Z,5.53
2022-11-16T18:17:27.693Z,5.77
2022-11-16T18:20:13.351Z,6.00
2022-11-16T18:22:58.442Z,6.20
2022-11-16T18:25:43.519Z,7.77
2022-11-16T18:28:28.901Z,11.90
2022-11-16T18:31:16.596Z,7.50
2022-11-16T18:34:02.750Z,4.70
2022-11-16T18:36:49.053Z,4.30
2022-11-16T18:39:34.050Z,4.63
2022-11-16T18:42:19.089Z,107.37
2022-11-16T18:45:04.373Z,76.63
2022-11-16T18:47:49.482Z,29.10
2022-11-16T18:50:34.323Z,83.23
2022-11-16T18:53:19.326Z,55.47
2022-11-16T18:56:04.872Z,35.73
2022-11-16T18:58:52.280Z,31.40
2022-11-16T19:01:38.190Z,29.53
2022-11-16T19:04:23.624Z,28.33
2022-11-16T19:07:08.735Z,26.07
2022-11-16T19:09:53.890Z,29.07
2022-11-16T19:12:39.274Z,28.67
2022-11-16T19:15:25.504Z,28.53
2022-11-16T19:18:26.045Z,27.33
2022-11-16T19:21:13.723Z,23.67
2022-11-16T19:23:58.716Z,24.70
2022-11-16T19:26:44.105Z,21.87
2022-11-16T19:29:29.412Z,22.53
2022-11-16T19:32:15.310Z,22.57
2022-11-16T19:35:00.480Z,22.27
2022-11-16T19:37:45.354Z,21.13
2022-11-16T19:40:30.299Z,19.23
2022-11-16T19:43:15.165Z,19.90
2022-11-16T19:46:09.302Z,18.00
2022-11-16T19:48:55.384Z,16.40
2022-11-16T19:51:40.540Z,17.07
2022-11-16T19:54:25.917Z,16.23
2022-11-16T19:57:11.594Z,16.87
2022-11-16T19:59:56.943Z,16.23
2022-11-16T20:02:41.968Z,15.30
2022-11-16T20:05:29.884Z,15.27
2022-11-16T20:08:14.762Z,14.07
2022-11-16T20:10:59.728Z,14.43
2022-11-16T20:13:44.851Z,13.47
2022-11-16T20:16:37.156Z,13.47
2022-11-16T20:19:24.123Z,12.80
2022-11-16T20:22:09.326Z,12.63
2022-11-16T20:24:54.776Z,11.93
2022-11-16T20:27:39.655Z,11.90
2022-11-16T20:30:24.837Z,11.33
2022-11-16T20:33:09.676Z,11.53
2022-11-16T20:36:00.342Z,10.50
2022-11-16T20:38:45.857Z,9.43
2022-11-16T20:41:33.180Z,10.20
2022-11-16T20:44:21.809Z,10.23
2022-11-16T20:47:06.949Z,8.93
2022-11-16T20:49:52.046Z,8.63
2022-11-16T20:52:42.425Z,10.27
2022-11-16T20:55:28.690Z,9.20
2022-11-16T20:58:17.532Z,9.10
2022-11-16T21:01:10.255Z,8.27
2022-11-16T21:03:56.618Z,8.23
2022-11-16T21:06:41.737Z,8.17
2022-11-16T21:09:27.801Z,8.80
2022-11-16T21:12:31.830Z,7.80
2022-11-16T21:15:17.104Z,7.10
2022-11-16T21:18:02.291Z,6.77
2022-11-16T21:20:47.525Z,7.20
2022-11-16T21:23:35.532Z,7.10
2022-11-16T21:26:26.878Z,6.87
2022-11-16T21:29:11.727Z,6.93
2022-11-16T21:31:56.778Z,6.53
2022-11-16T21:34:41.631Z,6.50
2022-11-16T21:37:26.744Z,5.90
2022-11-16T21:40:12.665Z,5.80
2022-11-16T21:42:57.617Z,6.27
2022-11-16T21:45:43.927Z,5.03
2022-11-16T21:48:31.699Z,5.80
2022-11-16T21:51:19.551Z,5.40
2022-11-16T21:54:04.624Z,5.77
2022-11-16T21:56:49.865Z,5.53
2022-11-16T21:59:34.743Z,5.30
2022-11-16T22:02:19.823Z,5.37
2022-11-16T22:05:24.272Z,5.47
2022-11-16T22:08:13.942Z,4.83
2022-11-16T22:10:59.018Z,5.37
2022-11-16T22:13:43.769Z,5.10
2022-11-16T22:16:28.815Z,5.17
2022-11-16T22:19:13.693Z,4.63
2022-11-16T22:21:59.372Z,4.73
2022-11-16T22:24:44.735Z,4.60
2022-11-16T22:27:29.829Z,4.60
2022-11-16T22:30:15.313Z,4.50
2022-11-16T22:33:00.140Z,4.60
2022-11-16T22:35:46.807Z,4.40
2022-11-16T22:38:31.931Z,4.17
2022-11-16T22:41:16.867Z,4.30
2022-11-16T22:44:01.773Z,3.60
2022-11-16T22:46:46.957Z,4.37
2022-11-16T22:49:32.456Z,3.90
2022-11-16T22:52:17.793Z,4.03
2022-11-16T22:55:02.950Z,3.43
2022-11-16T22:57:47.963Z,3.43
2022-11-16T23:00:38.986Z,3.87
2022-11-16T23:03:25.844Z,3.50
2022-11-16T23:06:11.013Z,3.47
2022-11-16T23:08:56.386Z,3.33
2022-11-16T23:12:00.067Z,3.43
2022-11-16T23:15:03.975Z,3.47
2022-11-16T23:17:49.157Z,3.67
2022-11-16T23:20:53.394Z,3.37
2022-11-16T23:23:57.335Z,3.77
2022-11-16T23:27:01.450Z,3.30
2022-11-16T23:29:46.695Z,3.57
2022-11-16T23:32:33.119Z,3.20
2022-11-16T23:35:18.936Z,3.13
2022-11-16T23:38:08.256Z,2.60
2022-11-16T23:40:53.873Z,2.93
2022-11-16T23:43:57.771Z,3.23
2022-11-16T23:46:42.915Z,2.87
2022-11-16T23:49:27.978Z,3.00
2022-11-16T23:52:13.240Z,3.03
2022-11-16T23:54:58.694Z,3.10
2022-11-16T23:57:43.631Z,2.93
